Time;durP1;ratioP1;P1;durP2;ratioP2;P2;SDS_P1;SDS_P2;PMS_P1;PMS_P2;Temp;Humidity;BMP_temperature;BMP_pressure;BME280_temperature;BME280_humidity;BME280_pressure;Samples;Min_cycle;Max_cycle;Signal;HPM_P1;HPM_P2
2022/12/09 00:03:33;;;;;;;27.42;15.58;;;;;;;3.94;87.13;99441.16;2808018;84;21016;-63
2022/12/09 00:07:41;;;;;;;22.55;16.77;;;;;;;3.98;86.88;99443.95;2808770;83;21080;-62
2022/12/09 00:11:43;;;;;;;21.68;16.48;;;;;;;3.94;86.96;99446.43;2909437;81;21008;-62
2022/12/09 00:15:44;;;;;;;21.52;13.13;;;;;;;3.96;86.51;99447.16;2892987;81;21022;-62
2022/12/09 00:19:53;;;;;;;16.07;14.10;;;;;;;4.00;86.85;99448.63;2866517;83;21035;-63
2022/12/09 00:23:56;;;;;;;27.20;15.03;;;;;;;4.02;86.97;99457.27;2807324;84;21008;-62
2022/12/09 00:27:58;;;;;;;20.40;14.50;;;;;;;4.08;86.83;99450.25;2785443;84;21046;-62
2022/12/09 00:31:59;;;;;;;20.43;14.47;;;;;;;4.10;86.78;99458.89;2762516;85;21018;-63
2022/12/09 00:36:08;;;;;;;24.10;15.45;;;;;;;4.10;86.54;99456.25;2742448;86;21308;-63
2022/12/09 00:40:12;;;;;;;21.97;15.43;;;;;;;4.05;86.18;99451.79;2867255;83;21058;-61
2022/12/09 00:44:14;;;;;;;18.62;14.30;;;;;;;4.03;86.16;99459.41;2867493;82;21059;-62
2022/12/09 00:48:15;;;;;;;24.47;16.90;;;;;;;4.03;86.28;99464.21;2856391;82;21486;-62
2022/12/09 00:52:25;;;;;;;22.80;13.45;;;;;;;3.99;86.71;99468.83;2847889;82;21327;-63
2022/12/09 00:56:28;;;;;;;23.47;15.65;;;;;;;4.01;86.63;99468.73;2867303;82;20994;-62
2022/12/09 01:00:30;;;;;;;24.47;18.45;;;;;;;4.04;86.68;99472.97;2866450;83;21020;-62
2022/12/09 01:04:31;;;;;;;39.55;24.52;;;;;;;4.05;86.70;99464.95;2852459;83;21000;-61
2022/12/09 01:08:33;;;;;;;33.48;22.48;;;;;;;4.09;86.92;99469.54;2801854;83;21058;-61
2022/12/09 01:12:34;;;;;;;25.72;17.25;;;;;;;4.10;87.00;99466.78;2785258;84;20980;-63
2022/12/09 01:16:35;;;;;;;26.97;14.35;;;;;;;4.12;86.71;99472.78;2812224;83;21007;-61
2022/12/09 01:20:37;;;;;;;24.80;14.00;;;;;;;4.12;86.72;99469.33;2811657;84;21303;-61
2022/12/09 01:24:38;;;;;;;26.17;14.80;;;;;;;4.07;86.49;99463.05;2751606;83;20998;-62
2022/12/09 01:28:40;;;;;;;22.22;14.43;;;;;;;4.08;86.61;99463.91;2780716;85;21004;-61
2022/12/09 01:32:48;;;;;;;22.70;14.25;;;;;;;4.04;86.68;99463.27;2794583;83;21028;-62
2022/12/09 01:36:50;;;;;;;17.80;13.53;;;;;;;4.08;86.90;99470.48;2850783;83;21023;-62
2022/12/09 01:40:51;;;;;;;16.20;11.68;;;;;;;4.07;86.94;99461.73;2812142;84;21015;-61
2022/12/09 01:45:29;;;;;;;18.50;12.30;;;;;;;4.04;86.91;99463.75;2798745;84;21016;-61
2022/12/09 01:54:16;;;;;;;25.30;15.35;;;;;;;4.07;86.75;99462.23;2846926;83;21047;-62
2022/12/09 01:58:18;;;;;;;23.10;14.63;;;;;;;4.03;87.14;99471.25;2812255;82;21103;-62
2022/12/09 02:02:21;;;;;;;25.50;18.00;;;;;;;4.04;87.19;99465.89;2812045;84;21035;-62
2022/12/09 02:06:23;;;;;;;18.23;15.15;;;;;;;4.04;87.43;99467.21;2811864;84;21090;-62
2022/12/09 02:10:26;;;;;;;25.15;16.93;;;;;;;4.06;87.24;99469.27;2760162;83;20992;-62
2022/12/09 02:15:04;;;;;;;26.10;15.65;;;;;;;4.09;87.25;99465.59;2794068;83;20973;-62
2022/12/09 02:19:41;;;;;;;25.65;16.57;;;;;;;4.16;87.41;99463.39;2795467;84;21003;-61
2022/12/09 02:23:51;;;;;;;24.85;14.98;;;;;;;4.22;87.27;99453.25;2753298;84;21023;-62
2022/12/09 02:28:19;;;;;;;19.60;16.23;;;;;;;4.21;86.97;99453.38;2801623;84;21013;-63
2022/12/09 02:32:42;;;;;;;25.08;16.65;;;;;;;4.21;86.88;99451.57;2782765;85;21077;-63
2022/12/09 02:37:10;;;;;;;22.27;15.48;;;;;;;4.16;86.66;99448.42;2821485;83;20993;-61
2022/12/09 02:41:22;;;;;;;24.12;15.83;;;;;;;4.12;87.03;99449.58;2787153;83;21040;-62
2022/12/09 02:45:27;;;;;;;22.87;16.48;;;;;;;4.18;87.15;99449.16;2766199;86;21029;-61
2022/12/09 02:49:31;;;;;;;23.02;16.12;;;;;;;4.28;87.27;99450.22;2795065;83;21272;-62
2022/12/09 02:53:35;;;;;;;22.20;14.65;;;;;;;4.35;87.14;99445.83;2812174;84;20989;-61
2022/12/09 02:57:38;;;;;;;24.37;17.32;;;;;;;4.42;87.43;99455.84;2812500;84;20976;-61
2022/12/09 03:02:16;;;;;;;31.27;19.55;;;;;;;4.49;86.79;99454.94;2760284;86;21030;-62
2022/12/09 03:06:19;;;;;;;27.82;18.37;;;;;;;4.56;87.39;99452.23;2795759;83;20969;-62
2022/12/09 03:10:35;;;;;;;22.37;16.70;;;;;;;4.54;85.86;99445.41;2789405;84;20993;-62
2022/12/09 03:14:44;;;;;;;25.50;17.45;;;;;;;4.57;86.43;99439.42;2730966;86;21071;-62
2022/12/09 03:19:29;;;;;;;29.50;16.57;;;;;;;4.58;85.93;99438.97;2767002;84;21012;-62
2022/12/09 03:23:33;;;;;;;26.57;16.42;;;;;;;4.62;85.69;99441.75;2849707;83;21024;-61
2022/12/09 03:27:58;;;;;;;27.20;16.95;;;;;;;4.60;85.79;99433.11;2850022;83;20950;-62
2022/12/09 03:32:01;;;;;;;26.52;17.62;;;;;;;4.62;86.44;99429.89;2874814;82;21050;-63
2022/12/09 03:36:06;;;;;;;21.82;15.28;;;;;;;4.74;86.81;99426.03;2865486;82;20980;-61
2022/12/09 03:40:11;;;;;;;21.95;16.00;;;;;;;4.81;86.90;99415.41;2849435;83;21024;-62
2022/12/09 03:44:57;;;;;;;25.15;15.85;;;;;;;4.90;86.42;99415.22;2849882;83;21043;-62
2022/12/09 03:48:58;;;;;;;24.90;17.70;;;;;;;4.95;86.26;99421.00;2848500;83;21083;-62
2022/12/09 03:53:25;;;;;;;26.07;17.35;;;;;;;4.99;86.20;99421.13;2831922;83;21296;-62
2022/12/09 03:57:28;;;;;;;25.68;16.23;;;;;;;5.03;86.63;99425.25;2846689;83;21027;-61
2022/12/09 04:01:31;;;;;;;23.00;18.32;;;;;;;5.15;86.58;99427.47;2834595;83;21043;-59
2022/12/09 04:05:32;;;;;;;23.32;17.87;;;;;;;5.19;85.92;99425.42;2830488;83;20976;-61
2022/12/09 04:09:34;;;;;;;23.60;16.35;;;;;;;5.17;85.61;99420.28;2824903;83;21028;-61
2022/12/09 04:13:35;;;;;;;21.57;16.25;;;;;;;5.17;85.71;99421.60;2812328;84;21027;-60
2022/12/09 04:17:36;;;;;;;25.80;17.05;;;;;;;5.10;85.91;99424.30;2817140;83;21022;-61
2022/12/09 04:21:38;;;;;;;22.93;16.12;;;;;;;5.07;86.09;99431.98;2851243;83;21026;-62
2022/12/09 04:25:39;;;;;;;23.35;16.60;;;;;;;5.06;86.20;99429.44;2834851;82;21023;-61
2022/12/09 04:29:40;;;;;;;26.42;19.65;;;;;;;5.11;86.75;99423.34;2748843;86;21050;-61
2022/12/09 04:33:43;;;;;;;25.12;16.82;;;;;;;5.18;86.42;99424.60;2795420;84;21005;-61
2022/12/09 04:37:49;;;;;;;26.77;19.23;;;;;;;5.18;85.61;99431.20;2762603;84;21012;-60
2022/12/09 04:41:51;;;;;;;22.30;15.50;;;;;;;5.00;85.93;99437.31;2793925;83;21063;-61
2022/12/09 04:45:53;;;;;;;27.62;18.42;;;;;;;4.91;86.77;99428.27;2795273;83;21000;-63
2022/12/09 04:50:23;;;;;;;29.57;22.42;;;;;;;4.90;87.43;99429.72;2795031;83;21082;-62
2022/12/09 04:54:25;;;;;;;33.23;19.62;;;;;;;4.95;87.50;99429.76;2803451;83;20992;-63
2022/12/09 04:58:29;;;;;;;28.73;19.23;;;;;;;5.08;87.59;99423.58;2785774;85;21003;-60
2022/12/09 05:02:30;;;;;;;28.77;18.67;;;;;;;5.04;86.54;99426.08;2802663;84;21028;-61
2022/12/09 05:06:33;;;;;;;27.20;19.40;;;;;;;5.10;86.15;99429.58;2794953;84;21036;-62
2022/12/09 05:10:34;;;;;;;24.43;17.70;;;;;;;4.99;84.89;99436.95;2792463;83;21001;-62
2022/12/09 05:14:38;;;;;;;28.45;19.42;;;;;;;4.91;85.66;99433.54;2795243;84;21063;-64
2022/12/09 05:18:40;;;;;;;22.65;15.72;;;;;;;4.93;86.49;99431.66;2794878;85;21051;-63
2022/12/09 05:22:41;;;;;;;22.20;17.12;;;;;;;5.03;86.42;99437.58;2795200;85;21000;-62
2022/12/09 05:26:54;;;;;;;26.37;18.17;;;;;;;4.98;85.72;99436.13;2793214;84;20968;-62
2022/12/09 05:31:02;;;;;;;28.12;18.65;;;;;;;4.98;86.22;99445.34;2783065;83;21034;-62
2022/12/09 05:35:04;;;;;;;24.32;15.95;;;;;;;4.70;87.05;99449.11;2825753;83;20951;-62
2022/12/09 05:39:06;;;;;;;23.42;15.88;;;;;;;4.58;88.11;99449.50;2779798;85;21012;-63
2022/12/09 05:43:22;;;;;;;30.35;18.52;;;;;;;4.52;88.67;99449.91;2803121;83;20964;-63
2022/12/09 05:47:23;;;;;;;;;;;;;;;4.33;89.76;99451.23;2826404;83;21035;-62
2022/12/09 05:51:28;;;;;;;30.77;20.85;;;;;;;4.17;90.45;99450.59;2811666;84;20137;-64
2022/12/09 05:55:29;;;;;;;27.20;20.05;;;;;;;4.18;90.78;99453.10;2811685;84;21003;-62
2022/12/09 05:59:31;;;;;;;23.35;18.10;;;;;;;4.24;90.84;99456.65;2811953;84;21011;-61
2022/12/09 06:03:32;;;;;;;22.13;18.60;;;;;;;4.37;90.69;99452.69;2811758;83;21020;-62
2022/12/09 06:07:34;;;;;;;28.73;24.72;;;;;;;4.34;91.02;99455.54;2811903;82;21008;-62
2022/12/09 06:11:38;;;;;;;46.42;27.87;;;;;;;4.21;91.70;99454.70;2811789;84;21071;-63
2022/12/09 06:15:39;;;;;;;81.75;46.35;;;;;;;4.13;91.87;99456.08;2812183;84;21024;-62
2022/12/09 06:19:40;;;;;;;89.40;55.92;;;;;;;4.24;92.35;99451.38;2812203;83;21062;-64
2022/12/09 06:23:42;;;;;;;64.12;43.13;;;;;;;4.28;91.71;99442.78;2760130;86;20999;-64
2022/12/09 06:27:43;;;;;;;43.63;33.33;;;;;;;4.43;91.31;99441.72;2773136;84;20996;-63
2022/12/09 06:31:45;;;;;;;40.33;25.65;;;;;;;4.54;89.99;99440.14;2763722;84;21031;-61
2022/12/09 06:35:46;;;;;;;48.13;31.27;;;;;;;4.27;90.06;99448.53;2788899;85;20993;-62
2022/12/09 06:39:53;;;;;;;48.08;28.00;;;;;;;4.07;90.87;99449.06;2759814;86;21039;-63
2022/12/09 06:43:58;;;;;;;38.78;25.72;;;;;;;4.14;91.85;99443.28;2795253;84;21400;-62
2022/12/09 06:47:59;;;;;;;44.58;27.55;;;;;;;4.34;91.52;99432.30;2830590;84;21008;-61
2022/12/09 06:52:00;;;;;;;44.08;27.98;;;;;;;4.47;90.82;99438.87;2818260;83;21052;-62
2022/12/09 06:56:05;;;;;;;44.10;27.90;;;;;;;4.56;90.27;99438.23;2795148;85;21008;-63
2022/12/09 07:00:08;;;;;;;44.25;24.72;;;;;;;4.64;89.75;99444.28;2793638;84;21079;-63
2022/12/09 07:04:13;;;;;;;52.88;24.77;;;;;;;4.74;89.54;99448.42;2759974;86;21026;-62
2022/12/09 07:08:14;;;;;;;46.08;24.07;;;;;;;4.77;88.57;99448.20;2795809;83;21036;-62
2022/12/09 07:12:16;;;;;;;37.45;25.72;;;;;;;4.76;88.63;99446.52;2756784;86;21011;-61
2022/12/09 07:16:17;;;;;;;33.90;22.52;;;;;;;4.76;88.71;99443.39;2784715;85;21425;-62
2022/12/09 07:20:18;;;;;;;33.48;22.55;;;;;;;4.74;88.66;99449.74;2751824;84;21031;-64
2022/12/09 07:24:20;;;;;;;36.42;27.32;;;;;;;4.46;89.67;99452.52;2720803;86;21070;-62
2022/12/09 07:28:21;;;;;;;27.73;20.77;;;;;;;4.40;90.41;99454.25;2746103;86;21059;-61
2022/12/09 07:32:22;;;;;;;41.00;27.17;;;;;;;4.20;92.03;99463.54;2752017;86;20984;-62
2022/12/09 07:36:26;;;;;;;34.15;22.15;;;;;;;4.04;93.22;99460.63;2759610;85;21012;-62
2022/12/09 07:40:27;;;;;;;37.60;27.90;;;;;;;3.94;93.77;99465.67;2751983;86;21016;-62
2022/12/09 07:44:29;;;;;;;42.35;29.12;;;;;;;3.99;93.72;99468.00;2800005;84;21011;-62
2022/12/09 07:48:31;;;;;;;42.30;27.77;;;;;;;4.08;93.17;99466.05;2811925;84;21258;-62
2022/12/09 07:52:32;;;;;;;42.55;30.05;;;;;;;4.04;92.69;99471.65;2811683;84;20968;-63
2022/12/09 07:56:33;;;;;;;40.98;28.62;;;;;;;3.84;91.57;99470.71;2813889;82;71219;-89
2022/12/09 08:00:35;;;;;;;39.45;27.13;;;;;;;3.60;93.35;99474.98;2843511;82;21043;-89
2022/12/09 08:04:36;;;;;;;41.05;27.58;;;;;;;3.49;94.67;99475.20;2792032;82;21034;-89
2022/12/09 08:08:37;;;;;;;36.65;26.07;;;;;;;3.56;94.58;99473.88;2819936;83;21079;-89
2022/12/09 08:12:38;;;;;;;38.50;29.20;;;;;;;3.69;94.36;99479.16;2792624;83;21075;-89
2022/12/09 08:16:41;;;;;;;35.92;26.55;;;;;;;3.74;94.35;99472.29;2824264;82;21091;-89
2022/12/09 08:20:42;;;;;;;43.85;27.77;;;;;;;3.77;94.42;99478.66;2822068;83;21133;-89
2022/12/09 08:24:43;;;;;;;42.13;28.57;;;;;;;3.81;93.91;99476.19;2797516;83;21469;-90
2022/12/09 08:28:45;;;;;;;35.00;24.35;;;;;;;3.99;94.29;99470.14;2819827;83;21031;-89
2022/12/09 08:32:46;;;;;;;41.77;29.45;;;;;;;4.16;93.99;99473.92;2814676;84;21055;-89
2022/12/09 08:36:47;;;;;;;41.33;23.12;;;;;;;4.23;93.26;99475.17;2823285;83;21002;-88
2022/12/09 08:40:49;;;;;;;42.40;26.80;;;;;;;4.37;93.12;99471.12;2843998;83;21534;-89
2022/12/09 08:44:50;;;;;;;43.02;30.62;;;;;;;4.42;92.48;99480.00;2814627;83;21019;-88
2022/12/09 08:48:51;;;;;;;50.80;31.10;;;;;;;4.59;93.16;99477.53;2765974;85;21689;-89
2022/12/09 08:52:52;;;;;;;42.58;28.12;;;;;;;4.84;91.83;99479.74;2823979;82;21039;-89
2022/12/09 08:56:55;;;;;;;50.75;31.82;;;;;;;4.92;89.83;99481.38;2827122;82;21074;-90
2022/12/09 09:00:56;;;;;;;43.30;27.48;;;;;;;4.82;90.64;99479.88;2884783;82;21554;-89
2022/12/09 09:04:58;;;;;;;49.08;33.38;;;;;;;4.85;91.03;99472.20;2866250;82;21082;-90
2022/12/09 09:08:59;;;;;;;45.60;28.80;;;;;;;4.98;91.16;99467.75;2782993;85;21679;-89
2022/12/09 09:13:01;;;;;;;47.67;28.67;;;;;;;5.31;89.13;99458.00;2810397;83;21011;-90
2022/12/09 09:17:02;;;;;;;50.95;32.40;;;;;;;5.57;87.54;99454.27;2805071;83;21448;-89
2022/12/09 09:21:06;;;;;;;39.15;26.00;;;;;;;5.88;85.46;99455.54;2792319;83;21062;-89
2022/12/09 09:25:08;;;;;;;38.45;27.87;;;;;;;6.09;82.63;99446.05;2830178;82;21297;-89
2022/12/09 09:29:13;;;;;;;32.28;23.18;;;;;;;6.24;82.95;99446.66;2848482;82;21034;-88
2022/12/09 09:33:15;;;;;;;40.08;28.15;;;;;;;6.46;81.35;99440.16;2879300;81;21638;-89
2022/12/09 09:37:17;;;;;;;42.93;31.37;;;;;;;6.61;79.72;99444.25;2863181;82;21047;-89
2022/12/09 09:41:46;;;;;;;40.52;30.43;;;;;;;6.75;79.48;99441.01;2860301;82;21071;-89
2022/12/09 09:45:48;;;;;;;34.92;23.92;;;;;;;6.83;79.54;99438.58;2848468;82;21026;-87
2022/12/09 09:50:10;;;;;;;30.35;21.25;;;;;;;6.94;77.48;99439.89;2852029;82;21098;-89
2022/12/09 09:54:13;;;;;;;29.52;20.82;;;;;;;6.99;77.33;99437.72;2759187;85;21067;-89
2022/12/09 09:58:32;;;;;;;27.02;19.95;;;;;;;6.94;77.43;99429.78;2815188;83;21030;-90
2022/12/09 10:03:00;;;;;;;26.33;18.48;;;;;;;6.78;77.12;99423.58;2813192;83;21091;-89
2022/12/09 10:07:18;;;;;;;24.05;17.52;;;;;;;6.76;78.54;99428.14;2819408;82;21047;-90
2022/12/09 10:11:34;;;;;;;27.13;15.08;;;;;;;6.74;78.12;99422.15;2819434;83;21417;-86
2022/12/09 10:15:41;;;;;;;25.92;16.42;;;;;;;6.70;79.07;99425.50;2830475;82;21129;-89
2022/12/09 10:19:47;;;;;;;19.70;15.00;;;;;;;6.71;79.25;99421.43;2798554;83;21047;-89
2022/12/09 10:23:49;;;;;;;;;;;;;;;6.76;79.07;99426.83;2816740;82;21574;-89
2022/12/09 10:28:07;;;;;;;24.07;16.67;;;;;;;6.78;79.11;99416.97;2841192;82;20142;-89
2022/12/09 10:32:14;;;;;;;29.42;17.52;;;;;;;6.75;78.85;99414.08;2841260;83;21045;-89
2022/12/09 10:36:25;;;;;;;28.83;19.27;;;;;;;6.76;79.55;99406.50;2831671;83;21050;-89
2022/12/09 10:40:53;;;;;;;25.75;17.82;;;;;;;6.76;79.08;99407.00;2831025;83;21292;-89
2022/12/09 10:45:05;;;;;;;40.10;19.75;;;;;;;6.75;79.23;99396.07;2836200;83;21030;-89
2022/12/09 10:49:18;;;;;;;25.90;17.45;;;;;;;6.73;79.20;99385.61;2834643;82;21038;-89
2022/12/09 10:53:19;;;;;;;22.80;14.58;;;;;;;6.71;79.25;99383.58;2838087;82;21039;-89
2022/12/09 10:57:27;;;;;;;21.02;16.05;;;;;;;6.68;79.77;99376.75;2815108;83;21587;-89
2022/12/09 11:01:29;;;;;;;21.02;16.67;;;;;;;6.76;81.00;99373.96;2824077;83;21047;-89
2022/12/09 11:05:36;;;;;;;21.05;15.53;;;;;;;6.88;80.52;99370.80;2816089;83;21534;-89
2022/12/09 11:09:39;;;;;;;22.00;16.37;;;;;;;7.02;80.25;99360.42;2829263;83;20991;-89
2022/12/09 11:13:42;;;;;;;27.22;17.50;;;;;;;7.15;80.56;99353.16;2739717;86;21597;-89
2022/12/09 11:18:06;;;;;;;22.75;15.38;;;;;;;7.34;78.85;99355.61;2783406;84;21598;-89
2022/12/09 11:22:39;;;;;;;28.65;21.52;;;;;;;7.49;78.27;99352.16;2754430;84;21015;-89
2022/12/09 11:26:40;;;;;;;31.40;22.85;;;;;;;7.51;78.02;99348.42;2774917;84;21070;-88
2022/12/09 11:30:56;;;;;;;38.30;30.90;;;;;;;7.43;78.14;99354.83;2760906;84;21590;-90
2022/12/09 11:34:57;;;;;;;31.73;22.80;;;;;;;7.36;78.00;99348.38;2758819;85;21134;-90
2022/12/09 11:39:27;;;;;;;34.15;22.45;;;;;;;7.34;78.25;99339.23;2763492;84;21611;-89
2022/12/09 11:43:46;;;;;;;26.77;19.40;;;;;;;7.36;77.73;99341.77;2765792;85;21054;-89
2022/12/09 11:47:48;;;;;;;19.92;14.78;;;;;;;7.42;77.80;99330.19;2760767;85;22201;-89
2022/12/09 11:52:06;;;;;;;17.42;15.18;;;;;;;7.49;78.52;99331.84;2755756;84;21441;-89
2022/12/09 11:56:18;;;;;;;26.73;17.02;;;;;;;7.42;78.07;99329.33;2759558;85;21118;-89
2022/12/09 12:00:27;;;;;;;23.45;17.30;;;;;;;7.28;79.78;99325.20;2772085;85;21046;-89
2022/12/09 12:04:39;;;;;;;21.55;14.10;;;;;;;7.05;81.44;99327.96;2717296;86;21008;-89
2022/12/09 12:08:45;;;;;;;22.48;15.65;;;;;;;6.84;80.96;99317.33;2760021;85;21019;-89
2022/12/09 12:13:13;;;;;;;21.37;14.58;;;;;;;6.81;81.77;99317.13;2759619;85;21046;-89
2022/12/09 12:17:35;;;;;;;26.68;16.95;;;;;;;6.74;81.87;99319.06;2764072;84;21006;-89
2022/12/09 12:22:16;;;;;;;22.58;15.78;;;;;;;6.73;82.72;99315.57;2753800;86;21082;-89
2022/12/09 12:26:28;;;;;;;18.30;13.83;;;;;;;6.71;82.38;99314.86;2760011;85;21007;-89
2022/12/09 12:31:09;;;;;;;18.82;13.88;;;;;;;6.75;81.92;99315.45;2740963;85;21534;-89
2022/12/09 12:35:19;;;;;;;15.05;13.38;;;;;;;6.80;81.90;99318.55;2778535;84;21060;-88
2022/12/09 12:39:42;;;;;;;18.82;13.85;;;;;;;6.80;80.57;99315.91;2767517;85;21084;-89
2022/12/09 12:48:38;;;;;;;23.57;15.75;;;;;;;6.78;79.77;99307.27;2757498;86;21066;-89
2022/12/09 12:53:05;;;;;;;22.13;14.67;;;;;;;6.79;79.93;99304.98;2690821;87;21082;-89
2022/12/09 12:57:41;;;;;;;35.28;26.95;;;;;;;6.74;79.68;99304.53;2694644;87;21042;-89
2022/12/09 13:02:03;;;;;;;23.98;16.07;;;;;;;6.76;81.87;99303.92;2640262;89;21053;-89
2022/12/09 13:06:08;;;;;;;24.37;18.07;;;;;;;6.75;82.76;99307.53;2647399;88;21072;-89
2022/12/09 13:10:21;;;;;;;23.40;19.10;;;;;;;6.73;83.04;99308.14;2644339;88;21052;-89
2022/12/09 13:14:30;;;;;;;23.32;17.48;;;;;;;6.61;83.58;99301.55;2636930;88;21315;-89
2022/12/09 13:18:35;;;;;;;20.20;17.12;;;;;;;6.57;84.33;99296.16;2649396;88;22881;-88
2022/12/09 13:22:51;;;;;;;33.83;20.67;;;;;;;6.47;84.30;99299.17;2644794;89;21137;-89
2022/12/09 13:27:09;;;;;;;26.07;20.50;;;;;;;6.39;83.85;99308.57;2555132;90;21136;-89
2022/12/09 13:31:11;;;;;;;33.83;23.25;;;;;;;6.39;84.26;99306.42;2644941;87;21613;-89
2022/12/09 13:35:25;;;;;;;31.48;19.45;;;;;;;6.39;84.66;99315.17;2625064;90;21077;-89
2022/12/09 13:39:50;;;;;;;26.65;19.20;;;;;;;6.41;85.17;99313.25;2501063;93;21063;-89
2022/12/09 13:44:05;;;;;;;27.02;19.05;;;;;;;6.40;85.61;99307.61;2503667;93;21121;-87
2022/12/09 13:48:15;;;;;;;37.30;24.87;;;;;;;6.45;85.67;99309.89;2504622;94;21095;-89
2022/12/09 13:52:22;;;;;;;23.92;19.85;;;;;;;6.48;85.91;99306.14;2487094;95;21091;-89
2022/12/09 13:56:30;;;;;;;29.50;18.67;;;;;;;6.48;86.34;99302.17;2502001;93;21148;-88
2022/12/09 14:00:33;;;;;;;27.22;19.20;;;;;;;6.41;85.87;99296.57;2514409;93;21106;-88
2022/12/09 14:04:57;;;;;;;74.45;37.40;;;;;;;6.36;87.37;99292.97;2555122;92;21105;-86
2022/12/09 14:09:25;;;;;;;33.92;23.40;;;;;;;6.32;87.97;99288.91;2561430;91;21047;-87
2022/12/09 14:13:33;;;;;;;31.85;20.88;;;;;;;6.16;88.85;99288.45;2593244;89;21051;-86
2022/12/09 14:17:43;;;;;;;28.57;21.93;;;;;;;5.96;89.12;99283.73;2762833;84;21088;-87
2022/12/09 14:22:08;;;;;;;27.25;20.65;;;;;;;5.82;90.76;99284.83;2797612;83;21067;-87
2022/12/09 14:26:10;;;;;;;26.52;21.55;;;;;;;5.69;91.36;99282.77;2806476;82;21031;-87
2022/12/09 14:30:32;;;;;;;32.63;23.67;;;;;;;5.56;91.88;99283.73;2810938;83;21085;-87
2022/12/09 14:34:38;;;;;;;32.40;23.07;;;;;;;5.46;91.90;99268.73;2815492;83;20996;-88
2022/12/09 14:39:03;;;;;;;33.55;24.67;;;;;;;5.32;92.30;99262.72;2782510;84;20989;-87
2022/12/09 14:43:33;;;;;;;38.50;24.47;;;;;;;5.24;92.64;99268.57;2796995;83;21615;-87
2022/12/09 14:47:42;;;;;;;60.17;41.60;;;;;;;5.11;93.02;99263.86;2804035;83;21049;-89
2022/12/09 14:51:57;;;;;;;64.03;39.90;;;;;;;5.01;93.29;99257.12;2805860;83;21039;-90
2022/12/09 14:55:59;;;;;;;51.37;32.60;;;;;;;4.92;93.85;99256.51;2811825;82;21610;-86
2022/12/09 15:00:00;;;;;;;60.10;36.35;;;;;;;4.83;94.62;99250.12;2815532;82;21067;-86
2022/12/09 15:04:01;;;;;;;56.15;36.40;;;;;;;4.78;94.86;99247.00;2792390;84;21125;-88
2022/12/09 15:08:04;;;;;;;57.88;32.30;;;;;;;4.75;95.17;99251.19;2832279;82;21085;-89
2022/12/09 15:12:10;;;;;;;51.92;34.67;;;;;;;4.76;95.26;99244.96;2828242;82;21507;-87
2022/12/09 15:16:21;;;;;;;43.25;27.40;;;;;;;4.69;95.58;99241.45;2827502;82;21527;-87
2022/12/09 15:20:38;;;;;;;42.13;24.45;;;;;;;4.61;95.93;99246.45;2807941;84;21598;-88
2022/12/09 15:24:41;;;;;;;30.57;21.65;;;;;;;4.60;95.94;99251.36;2821779;82;21050;-88
2022/12/09 15:28:47;;;;;;;41.70;27.60;;;;;;;4.52;97.08;99262.92;2823464;83;21008;-89
2022/12/09 15:32:49;;;;;;;34.67;23.73;;;;;;;4.42;97.94;99259.66;2807566;82;21352;-90
2022/12/09 15:37:01;;;;;;;45.43;28.77;;;;;;;4.34;98.86;99244.90;2808046;84;21055;-89
2022/12/09 15:45:31;;;;;;;57.67;35.55;;;;;;;4.20;100.00;99235.34;2827445;83;21090;-90
2022/12/09 15:49:37;;;;;;;47.73;30.45;;;;;;;4.20;100.00;99232.71;2818319;82;21007;-89
2022/12/09 15:53:44;;;;;;;41.13;27.17;;;;;;;4.21;100.00;99228.30;2849099;82;21725;-91
2022/12/09 15:57:49;;;;;;;49.88;31.37;;;;;;;4.16;100.00;99231.26;2861696;82;21004;-90
2022/12/09 16:01:56;;;;;;;51.05;31.52;;;;;;;4.24;100.00;99228.93;2818766;82;21094;-88
2022/12/09 16:06:05;;;;;;;52.95;30.50;;;;;;;4.26;100.00;99247.23;2817077;82;21023;-84
2022/12/09 16:10:16;;;;;;;40.25;28.23;;;;;;;4.24;100.00;99234.20;2827166;82;21106;-87
2022/12/09 16:14:20;;;;;;;43.58;27.70;;;;;;;4.23;100.00;99238.23;2840055;82;21039;-91
2022/12/09 16:18:35;;;;;;;44.42;28.70;;;;;;;4.23;100.00;99234.30;2848633;81;21102;-90
2022/12/09 16:22:39;;;;;;;48.80;35.23;;;;;;;4.21;100.00;99233.08;2832084;81;21007;-90
2022/12/09 16:26:46;;;;;;;46.05;27.62;;;;;;;4.18;100.00;99233.80;2815063;81;21051;-88
2022/12/09 16:30:52;;;;;;;49.15;30.10;;;;;;;4.14;100.00;99237.11;2807628;82;40865;-87
2022/12/09 16:35:01;;;;;;;42.67;27.65;;;;;;;4.14;100.00;99248.95;2842131;82;21091;-88
2022/12/09 16:39:26;;;;;;;45.98;32.80;;;;;;;4.17;100.00;99241.33;2832823;82;20988;-89
2022/12/09 16:43:29;;;;;;;47.67;31.68;;;;;;;4.18;100.00;99232.48;2828937;82;21641;-87
2022/12/09 16:47:31;;;;;;;45.00;29.57;;;;;;;4.18;100.00;99228.03;2829500;82;21614;-89
2022/12/09 16:51:33;;;;;;;39.90;27.77;;;;;;;4.22;100.00;99229.48;2816841;82;21488;-89
2022/12/09 16:55:34;;;;;;;39.55;26.87;;;;;;;4.25;100.00;99231.07;2828157;82;21571;-89
2022/12/09 16:59:35;;;;;;;40.73;29.98;;;;;;;4.28;100.00;99233.47;2820680;82;21015;-88
2022/12/09 17:03:48;;;;;;;44.45;29.00;;;;;;;4.33;100.00;99237.09;2820125;82;21133;-88
2022/12/09 17:07:49;;;;;;;43.23;30.30;;;;;;;4.27;100.00;99223.90;2817614;82;20957;-88
2022/12/09 17:11:50;;;;;;;43.25;29.37;;;;;;;4.28;100.00;99228.20;2837431;82;21014;-89
2022/12/09 17:15:56;;;;;;;43.30;29.63;;;;;;;4.30;100.00;99238.15;2830173;82;20991;-88
2022/12/09 17:19:55;;;;;;;44.08;29.23;;;;;;;4.29;100.00;99227.26;2825849;82;20965;-89
2022/12/09 17:23:57;;;;;;;59.50;35.38;;;;;;;4.32;99.99;99236.73;2802872;82;21068;-88
2022/12/09 17:28:02;;;;;;;46.00;30.90;;;;;;;4.34;99.80;99229.09;2841080;82;21026;-86
2022/12/09 17:32:04;;;;;;;42.35;30.85;;;;;;;4.37;99.61;99220.12;2828226;82;21573;-90
2022/12/09 17:36:07;;;;;;;43.55;29.65;;;;;;;4.33;99.45;99210.31;2861310;82;21392;-87
2022/12/09 17:40:09;;;;;;;48.40;33.55;;;;;;;4.33;99.38;99211.62;2856766;82;21019;-88
2022/12/09 17:44:10;;;;;;;54.60;36.68;;;;;;;4.28;99.58;99220.31;2872499;82;21004;-88
2022/12/09 17:48:12;;;;;;;44.75;33.53;;;;;;;4.27;99.29;99214.69;2818855;82;21003;-90
2022/12/09 17:52:13;;;;;;;57.53;37.55;;;;;;;4.26;99.07;99207.73;2868083;82;21542;-85
2022/12/09 17:56:19;;;;;;;57.00;37.03;;;;;;;4.19;99.19;99200.76;2861086;82;21066;-87
2022/12/09 18:00:20;;;;;;;74.50;43.90;;;;;;;4.14;99.24;99208.16;2859043;81;21015;-88
2022/12/09 18:04:21;;;;;;;63.28;39.88;;;;;;;4.10;99.38;99221.18;2844249;81;21048;-89
2022/12/09 18:08:23;;;;;;;68.07;43.17;;;;;;;4.04;99.80;99239.56;2835494;81;21038;-88
2022/12/09 18:12:24;;;;;;;55.30;38.30;;;;;;;4.03;99.87;99237.88;2854503;81;20994;-88
2022/12/09 18:16:25;;;;;;;69.05;43.65;;;;;;;4.04;99.63;99236.93;2855956;81;20979;-88
2022/12/09 18:20:26;;;;;;;69.90;43.28;;;;;;;4.02;99.29;99236.20;2861268;81;21617;-89
2022/12/09 18:24:28;;;;;;;68.83;43.70;;;;;;;4.00;98.94;99224.95;2889999;81;21034;-88
2022/12/09 18:28:30;;;;;;;73.47;44.88;;;;;;;4.06;98.83;99223.67;2896507;81;21613;-88
2022/12/09 18:32:31;;;;;;;72.67;45.73;;;;;;;4.07;98.37;99232.76;2869901;81;21014;-87
2022/12/09 18:36:32;;;;;;;76.75;46.88;;;;;;;4.02;98.46;99240.15;2900950;81;20999;-89
2022/12/09 18:40:34;;;;;;;70.67;40.67;;;;;;;3.98;98.62;99228.99;2870538;81;21010;-89
2022/12/09 18:44:35;;;;;;;61.00;38.28;;;;;;;3.97;98.70;99219.91;2825591;81;21050;-88
2022/12/09 18:48:37;;;;;;;65.55;42.85;;;;;;;3.94;99.01;99218.82;2861316;81;21069;-87
2022/12/09 18:52:40;;;;;;;67.97;41.48;;;;;;;3.95;99.17;99229.22;2888043;81;21515;-88
2022/12/09 18:56:41;;;;;;;74.55;41.80;;;;;;;3.91;99.04;99228.22;2843975;81;21419;-88
2022/12/09 19:00:42;;;;;;;71.15;44.60;;;;;;;3.88;99.21;99232.39;2887619;81;21027;-88
2022/12/09 19:04:44;;;;;;;78.05;44.45;;;;;;;3.82;99.04;99232.34;2878755;81;21661;-88
2022/12/09 19:08:45;;;;;;;82.82;51.48;;;;;;;3.83;98.98;99234.88;2890669;81;21065;-85
2022/12/09 19:12:47;;;;;;;74.53;45.83;;;;;;;3.85;98.75;99235.61;2879845;81;21054;-86
2022/12/09 19:16:49;;;;;;;66.57;44.38;;;;;;;3.80;98.98;99229.84;2857917;82;21006;-86
2022/12/09 19:20:50;;;;;;;72.97;41.77;;;;;;;3.80;98.61;99227.20;2853746;81;21063;-87
2022/12/09 19:24:51;;;;;;;71.07;41.70;;;;;;;3.72;99.20;99226.89;2854251;81;21023;-85